sensor_id;sensor_type;location;lat;lon;timestamp;temperature;humidity
72106;SHT30;59975;47.646;18.318;2023-03-05T00:01:11;1.47;79.99
72106;SHT30;59975;47.646;18.318;2023-03-05T00:03:37;1.61;79.36
72106;SHT30;59975;47.646;18.318;2023-03-05T00:06:03;1.79;78.65
72106;SHT30;59975;47.646;18.318;2023-03-05T00:08:30;2.02;77.68
72106;SHT30;59975;47.646;18.318;2023-03-05T00:11:04;2.12;77.32
72106;SHT30;59975;47.646;18.318;2023-03-05T00:13:30;2.20;77.09
72106;SHT30;59975;47.646;18.318;2023-03-05T00:15:56;2.27;76.66
72106;SHT30;59975;47.646;18.318;2023-03-05T00:18:22;2.33;76.62
72106;SHT30;59975;47.646;18.318;2023-03-05T00:20:48;2.41;76.18
72106;SHT30;59975;47.646;18.318;2023-03-05T00:23:13;2.43;76.14
72106;SHT30;59975;47.646;18.318;2023-03-05T00:25:39;2.56;75.86
72106;SHT30;59975;47.646;18.318;2023-03-05T00:28:05;2.54;75.59
72106;SHT30;59975;47.646;18.318;2023-03-05T00:30:33;2.58;75.48
72106;SHT30;59975;47.646;18.318;2023-03-05T00:33:00;2.60;75.45
72106;SHT30;59975;47.646;18.318;2023-03-05T00:35:26;2.60;75.48
72106;SHT30;59975;47.646;18.318;2023-03-05T00:37:52;2.62;75.36
72106;SHT30;59975;47.646;18.318;2023-03-05T00:40:17;2.64;75.44
72106;SHT30;59975;47.646;18.318;2023-03-05T00:42:43;2.62;75.38
72106;SHT30;59975;47.646;18.318;2023-03-05T00:45:09;2.67;75.14
72106;SHT30;59975;47.646;18.318;2023-03-05T00:47:35;2.68;75.09
72106;SHT30;59975;47.646;18.318;2023-03-05T00:50:02;2.71;75.06
72106;SHT30;59975;47.646;18.318;2023-03-05T00:52:28;2.67;75.30
72106;SHT30;59975;47.646;18.318;2023-03-05T00:54:53;2.61;75.20
72106;SHT30;59975;47.646;18.318;2023-03-05T00:57:19;2.64;75.38
72106;SHT30;59975;47.646;18.318;2023-03-05T00:59:44;2.68;75.31
72106;SHT30;59975;47.646;18.318;2023-03-05T01:02:10;2.65;75.38
72106;SHT30;59975;47.646;18.318;2023-03-05T01:04:36;2.61;75.61
72106;SHT30;59975;47.646;18.318;2023-03-05T01:07:02;2.57;75.79
72106;SHT30;59975;47.646;18.318;2023-03-05T01:09:28;2.60;75.83
72106;SHT30;59975;47.646;18.318;2023-03-05T01:11:54;2.61;75.93
72106;SHT30;59975;47.646;18.318;2023-03-05T01:14:20;2.50;76.42
72106;SHT30;59975;47.646;18.318;2023-03-05T01:16:46;2.58;76.16
72106;SHT30;59975;47.646;18.318;2023-03-05T01:19:13;2.64;75.98
72106;SHT30;59975;47.646;18.318;2023-03-05T01:21:38;2.62;75.97
72106;SHT30;59975;47.646;18.318;2023-03-05T01:24:05;2.65;75.91
72106;SHT30;59975;47.646;18.318;2023-03-05T01:26:31;2.67;75.87
72106;SHT30;59975;47.646;18.318;2023-03-05T01:28:56;2.65;75.95
72106;SHT30;59975;47.646;18.318;2023-03-05T01:31:21;2.74;75.76
72106;SHT30;59975;47.646;18.318;2023-03-05T01:33:47;2.78;75.80
72106;SHT30;59975;47.646;18.318;2023-03-05T01:36:14;2.80;75.63
72106;SHT30;59975;47.646;18.318;2023-03-05T01:38:45;2.81;75.56
72106;SHT30;59975;47.646;18.318;2023-03-05T01:41:12;2.85;75.46
72106;SHT30;59975;47.646;18.318;2023-03-05T01:43:38;2.85;75.33
72106;SHT30;59975;47.646;18.318;2023-03-05T01:49:03;2.88;75.09
72106;SHT30;59975;47.646;18.318;2023-03-05T01:51:53;2.85;75.19
72106;SHT30;59975;47.646;18.318;2023-03-05T01:54:21;2.88;75.31
72106;SHT30;59975;47.646;18.318;2023-03-05T01:56:50;2.81;75.61
72106;SHT30;59975;47.646;18.318;2023-03-05T01:59:18;2.78;75.78
72106;SHT30;59975;47.646;18.318;2023-03-05T02:01:47;2.77;75.81
72106;SHT30;59975;47.646;18.318;2023-03-05T02:04:15;2.78;75.95
72106;SHT30;59975;47.646;18.318;2023-03-05T02:06:42;2.77;76.20
72106;SHT30;59975;47.646;18.318;2023-03-05T02:09:08;2.75;76.16
72106;SHT30;59975;47.646;18.318;2023-03-05T02:11:34;2.77;76.40
72106;SHT30;59975;47.646;18.318;2023-03-05T02:14:01;2.83;76.06
72106;SHT30;59975;47.646;18.318;2023-03-05T02:16:27;2.88;75.85
72106;SHT30;59975;47.646;18.318;2023-03-05T02:19:00;2.92;75.64
72106;SHT30;59975;47.646;18.318;2023-03-05T02:21:28;2.88;75.85
72106;SHT30;59975;47.646;18.318;2023-03-05T02:23:54;2.89;75.74
72106;SHT30;59975;47.646;18.318;2023-03-05T02:26:19;2.94;75.65
72106;SHT30;59975;47.646;18.318;2023-03-05T02:28:52;2.98;75.43
72106;SHT30;59975;47.646;18.318;2023-03-05T02:31:21;2.99;75.14
72106;SHT30;59975;47.646;18.318;2023-03-05T02:33:48;3.04;75.13
72106;SHT30;59975;47.646;18.318;2023-03-05T02:36:14;3.04;74.85
72106;SHT30;59975;47.646;18.318;2023-03-05T02:38:40;3.08;74.86
72106;SHT30;59975;47.646;18.318;2023-03-05T02:41:06;3.04;74.85
72106;SHT30;59975;47.646;18.318;2023-03-05T02:43:32;3.09;74.55
72106;SHT30;59975;47.646;18.318;2023-03-05T02:45:58;3.09;74.76
72106;SHT30;59975;47.646;18.318;2023-03-05T02:48:23;3.13;74.61
72106;SHT30;59975;47.646;18.318;2023-03-05T02:50:49;3.15;74.30
72106;SHT30;59975;47.646;18.318;2023-03-05T02:53:14;3.13;74.28
72106;SHT30;59975;47.646;18.318;2023-03-05T02:55:40;3.18;74.04
72106;SHT30;59975;47.646;18.318;2023-03-05T02:58:05;3.16;74.20
72106;SHT30;59975;47.646;18.318;2023-03-05T03:00:31;3.09;74.56
72106;SHT30;59975;47.646;18.318;2023-03-05T03:02:56;3.08;74.66
72106;SHT30;59975;47.646;18.318;2023-03-05T03:05:22;3.12;74.58
72106;SHT30;59975;47.646;18.318;2023-03-05T03:07:48;3.13;74.41
72106;SHT30;59975;47.646;18.318;2023-03-05T03:10:14;3.16;74.48
72106;SHT30;59975;47.646;18.318;2023-03-05T03:12:40;3.18;74.38
72106;SHT30;59975;47.646;18.318;2023-03-05T03:15:09;3.12;74.43
72106;SHT30;59975;47.646;18.318;2023-03-05T03:17:36;3.13;74.29
72106;SHT30;59975;47.646;18.318;2023-03-05T03:20:04;3.16;74.34
72106;SHT30;59975;47.646;18.318;2023-03-05T03:22:30;3.15;74.27
72106;SHT30;59975;47.646;18.318;2023-03-05T03:24:56;3.20;74.09
72106;SHT30;59975;47.646;18.318;2023-03-05T03:27:22;3.13;74.22
72106;SHT30;59975;47.646;18.318;2023-03-05T03:29:48;3.22;73.71
72106;SHT30;59975;47.646;18.318;2023-03-05T03:32:13;3.22;73.85
72106;SHT30;59975;47.646;18.318;2023-03-05T03:34:39;3.18;73.83
72106;SHT30;59975;47.646;18.318;2023-03-05T03:37:05;3.20;73.76
72106;SHT30;59975;47.646;18.318;2023-03-05T03:39:31;3.25;73.66
72106;SHT30;59975;47.646;18.318;2023-03-05T03:41:56;3.18;73.85
72106;SHT30;59975;47.646;18.318;2023-03-05T03:44:22;3.19;73.75
72106;SHT30;59975;47.646;18.318;2023-03-05T03:46:48;3.20;73.64
72106;SHT30;59975;47.646;18.318;2023-03-05T03:49:22;3.18;73.77
72106;SHT30;59975;47.646;18.318;2023-03-05T03:51:49;3.15;73.83
72106;SHT30;59975;47.646;18.318;2023-03-05T03:54:16;3.19;73.62
72106;SHT30;59975;47.646;18.318;2023-03-05T03:56:42;3.12;73.91
72106;SHT30;59975;47.646;18.318;2023-03-05T03:59:08;3.12;73.67
72106;SHT30;59975;47.646;18.318;2023-03-05T04:01:34;3.12;73.66
72106;SHT30;59975;47.646;18.318;2023-03-05T04:03:59;3.18;73.73
72106;SHT30;59975;47.646;18.318;2023-03-05T04:06:25;3.12;73.62
72106;SHT30;59975;47.646;18.318;2023-03-05T04:08:50;3.13;73.80
72106;SHT30;59975;47.646;18.318;2023-03-05T04:11:16;3.15;73.59
72106;SHT30;59975;47.646;18.318;2023-03-05T04:13:44;3.15;73.69
72106;SHT30;59975;47.646;18.318;2023-03-05T04:16:10;3.15;73.52
72106;SHT30;59975;47.646;18.318;2023-03-05T04:18:36;3.12;73.55
72106;SHT30;59975;47.646;18.318;2023-03-05T04:21:01;3.15;73.52
72106;SHT30;59975;47.646;18.318;2023-03-05T04:23:27;3.16;73.44
72106;SHT30;59975;47.646;18.318;2023-03-05T04:25:52;3.16;73.55
72106;SHT30;59975;47.646;18.318;2023-03-05T04:28:18;3.16;73.70
72106;SHT30;59975;47.646;18.318;2023-03-05T04:30:43;3.11;73.74
72106;SHT30;59975;47.646;18.318;2023-03-05T04:33:09;3.16;73.75
72106;SHT30;59975;47.646;18.318;2023-03-05T04:35:34;3.09;73.84
72106;SHT30;59975;47.646;18.318;2023-03-05T04:38:00;3.05;74.19
72106;SHT30;59975;47.646;18.318;2023-03-05T04:40:25;3.05;74.01
72106;SHT30;59975;47.646;18.318;2023-03-05T04:42:51;3.08;73.97
72106;SHT30;59975;47.646;18.318;2023-03-05T04:45:16;3.02;73.97
72106;SHT30;59975;47.646;18.318;2023-03-05T04:47:42;3.08;73.71
72106;SHT30;59975;47.646;18.318;2023-03-05T04:50:10;3.09;73.73
72106;SHT30;59975;47.646;18.318;2023-03-05T04:52:41;3.09;73.77
72106;SHT30;59975;47.646;18.318;2023-03-05T04:55:07;3.11;73.68
72106;SHT30;59975;47.646;18.318;2023-03-05T04:57:34;3.08;73.81
72106;SHT30;59975;47.646;18.318;2023-03-05T04:59:59;3.11;73.75
72106;SHT30;59975;47.646;18.318;2023-03-05T05:02:25;3.09;73.79
72106;SHT30;59975;47.646;18.318;2023-03-05T05:04:53;3.08;73.94
72106;SHT30;59975;47.646;18.318;2023-03-05T05:07:20;3.02;74.36
72106;SHT30;59975;47.646;18.318;2023-03-05T05:09:45;3.02;74.41
72106;SHT30;59975;47.646;18.318;2023-03-05T05:12:11;2.95;74.37
72106;SHT30;59975;47.646;18.318;2023-03-05T05:14:36;3.04;74.42
72106;SHT30;59975;47.646;18.318;2023-03-05T05:17:02;2.99;74.41
72106;SHT30;59975;47.646;18.318;2023-03-05T05:19:31;2.98;74.31
72106;SHT30;59975;47.646;18.318;2023-03-05T05:21:57;3.01;74.45
72106;SHT30;59975;47.646;18.318;2023-03-05T05:24:23;3.07;73.99
72106;SHT30;59975;47.646;18.318;2023-03-05T05:26:48;3.09;73.86
72106;SHT30;59975;47.646;18.318;2023-03-05T05:29:14;3.05;74.13
72106;SHT30;59975;47.646;18.318;2023-03-05T05:31:39;3.07;74.11
72106;SHT30;59975;47.646;18.318;2023-03-05T05:34:05;3.09;74.04
72106;SHT30;59975;47.646;18.318;2023-03-05T05:36:30;3.11;74.21
72106;SHT30;59975;47.646;18.318;2023-03-05T05:38:56;3.08;74.40
72106;SHT30;59975;47.646;18.318;2023-03-05T05:41:21;3.12;74.30
72106;SHT30;59975;47.646;18.318;2023-03-05T05:43:47;3.13;74.39
72106;SHT30;59975;47.646;18.318;2023-03-05T05:46:16;3.08;74.60
72106;SHT30;59975;47.646;18.318;2023-03-05T05:48:42;3.07;74.77
72106;SHT30;59975;47.646;18.318;2023-03-05T05:51:11;3.01;74.84
72106;SHT30;59975;47.646;18.318;2023-03-05T05:53:37;3.05;74.92
72106;SHT30;59975;47.646;18.318;2023-03-05T05:56:04;3.02;75.00
72106;SHT30;59975;47.646;18.318;2023-03-05T05:58:30;3.08;74.72
72106;SHT30;59975;47.646;18.318;2023-03-05T06:00:55;3.12;74.57
72106;SHT30;59975;47.646;18.318;2023-03-05T06:03:21;3.19;74.21
72106;SHT30;59975;47.646;18.318;2023-03-05T06:05:46;3.16;74.35
72106;SHT30;59975;47.646;18.318;2023-03-05T06:08:12;3.19;74.22
72106;SHT30;59975;47.646;18.318;2023-03-05T06:10:37;3.25;73.86
72106;SHT30;59975;47.646;18.318;2023-03-05T06:13:03;3.15;74.37
72106;SHT30;59975;47.646;18.318;2023-03-05T06:15:29;3.15;74.48
72106;SHT30;59975;47.646;18.318;2023-03-05T06:17:54;3.18;74.13
72106;SHT30;59975;47.646;18.318;2023-03-05T06:20:20;3.15;74.47
72106;SHT30;59975;47.646;18.318;2023-03-05T06:22:46;3.13;74.40
72106;SHT30;59975;47.646;18.318;2023-03-05T06:25:11;3.15;74.24
72106;SHT30;59975;47.646;18.318;2023-03-05T06:27:37;3.19;74.31
72106;SHT30;59975;47.646;18.318;2023-03-05T06:30:04;3.29;73.85
72106;SHT30;59975;47.646;18.318;2023-03-05T06:32:30;3.25;73.93
72106;SHT30;59975;47.646;18.318;2023-03-05T06:34:56;3.38;73.62
72106;SHT30;59975;47.646;18.318;2023-03-05T06:37:22;3.35;73.56
72106;SHT30;59975;47.646;18.318;2023-03-05T06:39:47;3.38;73.29
72106;SHT30;59975;47.646;18.318;2023-03-05T06:42:13;3.42;73.26
72106;SHT30;59975;47.646;18.318;2023-03-05T06:44:39;3.42;73.29
72106;SHT30;59975;47.646;18.318;2023-03-05T06:47:06;3.42;73.40
72106;SHT30;59975;47.646;18.318;2023-03-05T06:49:32;3.43;73.46
72106;SHT30;59975;47.646;18.318;2023-03-05T06:51:57;3.43;73.53
72106;SHT30;59975;47.646;18.318;2023-03-05T06:54:23;3.40;73.56
72106;SHT30;59975;47.646;18.318;2023-03-05T06:56:48;3.46;73.54
72106;SHT30;59975;47.646;18.318;2023-03-05T06:59:15;3.42;73.71
72106;SHT30;59975;47.646;18.318;2023-03-05T07:01:41;3.43;73.83
72106;SHT30;59975;47.646;18.318;2023-03-05T07:04:07;3.50;73.71
72106;SHT30;59975;47.646;18.318;2023-03-05T07:06:35;3.56;73.82
72106;SHT30;59975;47.646;18.318;2023-03-05T07:09:04;3.60;73.66
72106;SHT30;59975;47.646;18.318;2023-03-05T07:11:31;3.62;73.60
72106;SHT30;59975;47.646;18.318;2023-03-05T07:13:57;3.70;73.60
72106;SHT30;59975;47.646;18.318;2023-03-05T07:16:27;3.69;73.68
72106;SHT30;59975;47.646;18.318;2023-03-05T07:18:54;3.69;73.54
72106;SHT30;59975;47.646;18.318;2023-03-05T07:21:23;3.67;73.81
72106;SHT30;59975;47.646;18.318;2023-03-05T07:23:49;3.64;73.88
72106;SHT30;59975;47.646;18.318;2023-03-05T07:26:15;3.67;74.10
72106;SHT30;59975;47.646;18.318;2023-03-05T07:28:41;3.73;74.59
72106;SHT30;59975;47.646;18.318;2023-03-05T07:31:11;3.72;75.07
72106;SHT30;59975;47.646;18.318;2023-03-05T07:33:37;3.73;74.87
72106;SHT30;59975;47.646;18.318;2023-03-05T07:36:05;3.80;74.72
72106;SHT30;59975;47.646;18.318;2023-03-05T07:38:31;3.84;74.69
72106;SHT30;59975;47.646;18.318;2023-03-05T07:41:04;3.91;74.59
72106;SHT30;59975;47.646;18.318;2023-03-05T07:43:30;3.84;74.36
72106;SHT30;59975;47.646;18.318;2023-03-05T07:45:55;3.89;74.12
72106;SHT30;59975;47.646;18.318;2023-03-05T07:48:23;3.93;74.23
72106;SHT30;59975;47.646;18.318;2023-03-05T07:50:49;4.00;74.35
72106;SHT30;59975;47.646;18.318;2023-03-05T07:53:15;4.07;73.94
72106;SHT30;59975;47.646;18.318;2023-03-05T07:55:42;4.04;73.90
72106;SHT30;59975;47.646;18.318;2023-03-05T07:58:08;4.11;73.83
72106;SHT30;59975;47.646;18.318;2023-03-05T08:00:34;4.22;73.61
72106;SHT30;59975;47.646;18.318;2023-03-05T08:02:59;4.41;72.58
72106;SHT30;59975;47.646;18.318;2023-03-05T08:05:25;4.42;72.27
72106;SHT30;59975;47.646;18.318;2023-03-05T08:07:50;4.41;72.65
72106;SHT30;59975;47.646;18.318;2023-03-05T08:10:16;4.44;72.71
72106;SHT30;59975;47.646;18.318;2023-03-05T08:12:42;4.52;72.51
72106;SHT30;59975;47.646;18.318;2023-03-05T08:15:08;4.58;71.46
72106;SHT30;59975;47.646;18.318;2023-03-05T08:17:33;4.45;72.30
72106;SHT30;59975;47.646;18.318;2023-03-05T08:19:59;4.49;72.21
72106;SHT30;59975;47.646;18.318;2023-03-05T08:22:32;4.52;71.79
72106;SHT30;59975;47.646;18.318;2023-03-05T08:24:59;4.54;71.62
72106;SHT30;59975;47.646;18.318;2023-03-05T08:27:25;4.75;71.54
72106;SHT30;59975;47.646;18.318;2023-03-05T08:29:50;4.76;71.31
72106;SHT30;59975;47.646;18.318;2023-03-05T08:32:16;4.95;70.79
72106;SHT30;59975;47.646;18.318;2023-03-05T08:34:42;4.96;70.79
72106;SHT30;59975;47.646;18.318;2023-03-05T08:37:07;5.03;70.16
72106;SHT30;59975;47.646;18.318;2023-03-05T08:39:35;4.99;69.76
72106;SHT30;59975;47.646;18.318;2023-03-05T08:42:00;4.95;70.24
72106;SHT30;59975;47.646;18.318;2023-03-05T08:44:26;4.93;70.00
72106;SHT30;59975;47.646;18.318;2023-03-05T08:46:52;4.88;70.60
72106;SHT30;59975;47.646;18.318;2023-03-05T08:49:17;4.85;69.73
72106;SHT30;59975;47.646;18.318;2023-03-05T08:51:43;4.79;70.35
72106;SHT30;59975;47.646;18.318;2023-03-05T08:54:09;4.85;70.52
72106;SHT30;59975;47.646;18.318;2023-03-05T08:56:35;4.85;69.97
72106;SHT30;59975;47.646;18.318;2023-03-05T08:59:01;4.80;69.72
72106;SHT30;59975;47.646;18.318;2023-03-05T09:01:28;4.97;69.74
72106;SHT30;59975;47.646;18.318;2023-03-05T09:03:56;5.03;69.25
72106;SHT30;59975;47.646;18.318;2023-03-05T09:06:22;4.88;69.44
72106;SHT30;59975;47.646;18.318;2023-03-05T09:08:47;4.95;69.28
72106;SHT30;59975;47.646;18.318;2023-03-05T09:11:13;4.99;68.51
72106;SHT30;59975;47.646;18.318;2023-03-05T09:13:39;4.96;68.44
72106;SHT30;59975;47.646;18.318;2023-03-05T09:16:07;4.89;68.88
72106;SHT30;59975;47.646;18.318;2023-03-05T09:18:34;4.90;68.96
72106;SHT30;59975;47.646;18.318;2023-03-05T09:21:08;4.93;68.63
72106;SHT30;59975;47.646;18.318;2023-03-05T09:23:34;4.96;69.05
72106;SHT30;59975;47.646;18.318;2023-03-05T09:26:00;5.00;68.49
72106;SHT30;59975;47.646;18.318;2023-03-05T09:28:25;5.10;68.47
72106;SHT30;59975;47.646;18.318;2023-03-05T09:30:51;5.31;67.87
72106;SHT30;59975;47.646;18.318;2023-03-05T09:33:16;5.48;67.55
72106;SHT30;59975;47.646;18.318;2023-03-05T09:35:42;5.48;67.59
72106;SHT30;59975;47.646;18.318;2023-03-05T09:38:07;5.61;65.99
72106;SHT30;59975;47.646;18.318;2023-03-05T09:46:43;6.11;64.90
72106;SHT30;59975;47.646;18.318;2023-03-05T09:49:30;6.25;64.67
72106;SHT30;59975;47.646;18.318;2023-03-05T09:52:02;6.47;63.64
72106;SHT30;59975;47.646;18.318;2023-03-05T09:54:37;6.36;63.52
72106;SHT30;59975;47.646;18.318;2023-03-05T09:57:12;6.35;63.89
72106;SHT30;59975;47.646;18.318;2023-03-05T09:59:50;6.33;63.12
72106;SHT30;59975;47.646;18.318;2023-03-05T10:02:31;6.54;62.55
72106;SHT30;59975;47.646;18.318;2023-03-05T10:07:42;6.62;62.23
72106;SHT30;59975;47.646;18.318;2023-03-05T10:10:19;6.53;62.55
72106;SHT30;59975;47.646;18.318;2023-03-05T10:12:51;6.39;62.70
72106;SHT30;59975;47.646;18.318;2023-03-05T10:15:28;6.49;62.99
72106;SHT30;59975;47.646;18.318;2023-03-05T10:17:57;6.52;63.27
72106;SHT30;59975;47.646;18.318;2023-03-05T10:35:43;6.11;64.00
72106;SHT30;59975;47.646;18.318;2023-03-05T10:38:20;6.24;63.76
72106;SHT30;59975;47.646;18.318;2023-03-05T10:40:51;6.25;63.52
72106;SHT30;59975;47.646;18.318;2023-03-05T10:46:28;6.39;63.12
72106;SHT30;59975;47.646;18.318;2023-03-05T10:48:58;6.63;62.42
72106;SHT30;59975;47.646;18.318;2023-03-05T10:54:26;6.69;61.10
72106;SHT30;59975;47.646;18.318;2023-03-05T10:57:23;6.69;60.86
72106;SHT30;59975;47.646;18.318;2023-03-05T10:59:50;6.67;61.74
72106;SHT30;59975;47.646;18.318;2023-03-05T11:02:17;6.69;61.30
72106;SHT30;59975;47.646;18.318;2023-03-05T11:04:43;6.69;61.69
72106;SHT30;59975;47.646;18.318;2023-03-05T11:09:41;6.60;61.96
72106;SHT30;59975;47.646;18.318;2023-03-05T11:12:15;6.50;62.41
72106;SHT30;59975;47.646;18.318;2023-03-05T11:23:16;6.72;61.57
72106;SHT30;59975;47.646;18.318;2023-03-05T11:25:53;6.81;62.02
72106;SHT30;59975;47.646;18.318;2023-03-05T11:28:56;6.80;60.26
72106;SHT30;59975;47.646;18.318;2023-03-05T11:39:21;7.03;59.75
72106;SHT30;59975;47.646;18.318;2023-03-05T11:44:31;7.07;58.59
72106;SHT30;59975;47.646;18.318;2023-03-05T11:49:40;7.20;58.04
72106;SHT30;59975;47.646;18.318;2023-03-05T11:55:13;7.15;57.61
72106;SHT30;59975;47.646;18.318;2023-03-05T12:00:34;7.24;57.37
72106;SHT30;59975;47.646;18.318;2023-03-05T12:03:04;7.35;57.71
72106;SHT30;59975;47.646;18.318;2023-03-05T12:05:33;7.50;55.95
72106;SHT30;59975;47.646;18.318;2023-03-05T12:08:00;7.42;54.87
72106;SHT30;59975;47.646;18.318;2023-03-05T12:10:26;7.18;55.35
72106;SHT30;59975;47.646;18.318;2023-03-05T12:15:58;7.11;55.95
72106;SHT30;59975;47.646;18.318;2023-03-05T12:18:49;7.04;55.52
72106;SHT30;59975;47.646;18.318;2023-03-05T12:21:29;6.97;55.94
72106;SHT30;59975;47.646;18.318;2023-03-05T12:23:59;7.01;55.97
72106;SHT30;59975;47.646;18.318;2023-03-05T12:27:09;6.96;56.33
72106;SHT30;59975;47.646;18.318;2023-03-05T12:47:43;6.16;57.81
72106;SHT30;59975;47.646;18.318;2023-03-05T12:53:13;6.50;57.50
72106;SHT30;59975;47.646;18.318;2023-03-05T12:58:52;6.83;56.69
72106;SHT30;59975;47.646;18.318;2023-03-05T13:03:53;6.76;56.20
72106;SHT30;59975;47.646;18.318;2023-03-05T13:06:26;6.73;56.93
72106;SHT30;59975;47.646;18.318;2023-03-05T13:11:41;6.63;56.76
72106;SHT30;59975;47.646;18.318;2023-03-05T13:16:56;6.37;57.99
72106;SHT30;59975;47.646;18.318;2023-03-05T13:19:21;6.43;58.06
72106;SHT30;59975;47.646;18.318;2023-03-05T13:22:00;6.43;58.66
72106;SHT30;59975;47.646;18.318;2023-03-05T13:24:26;6.30;57.97
72106;SHT30;59975;47.646;18.318;2023-03-05T13:26:51;6.22;58.62
72106;SHT30;59975;47.646;18.318;2023-03-05T13:29:23;6.18;58.72
72106;SHT30;59975;47.646;18.318;2023-03-05T13:31:58;6.02;59.42
72106;SHT30;59975;47.646;18.318;2023-03-05T13:34:34;6.04;59.73
72106;SHT30;59975;47.646;18.318;2023-03-05T13:37:05;5.99;59.95
72106;SHT30;59975;47.646;18.318;2023-03-05T13:39:37;6.02;59.66
72106;SHT30;59975;47.646;18.318;2023-03-05T13:42:15;6.06;59.73
72106;SHT30;59975;47.646;18.318;2023-03-05T13:44:41;5.98;60.11
72106;SHT30;59975;47.646;18.318;2023-03-05T13:47:18;5.99;60.08
72106;SHT30;59975;47.646;18.318;2023-03-05T13:49:44;6.01;60.46
72106;SHT30;59975;47.646;18.318;2023-03-05T13:52:13;6.04;60.51
72106;SHT30;59975;47.646;18.318;2023-03-05T13:54:47;6.16;59.53
72106;SHT30;59975;47.646;18.318;2023-03-05T13:57:38;6.33;59.58
72106;SHT30;59975;47.646;18.318;2023-03-05T14:00:06;6.35;59.40
72106;SHT30;59975;47.646;18.318;2023-03-05T14:02:48;6.32;59.61
72106;SHT30;59975;47.646;18.318;2023-03-05T14:05:14;6.30;59.95
72106;SHT30;59975;47.646;18.318;2023-03-05T14:07:40;6.21;59.57
72106;SHT30;59975;47.646;18.318;2023-03-05T14:10:26;6.14;60.09
72106;SHT30;59975;47.646;18.318;2023-03-05T14:12:52;6.22;60.33
72106;SHT30;59975;47.646;18.318;2023-03-05T14:17:49;6.15;60.06
72106;SHT30;59975;47.646;18.318;2023-03-05T14:20:23;6.16;60.07
72106;SHT30;59975;47.646;18.318;2023-03-05T14:22:51;6.01;59.82
72106;SHT30;59975;47.646;18.318;2023-03-05T14:27:55;5.85;60.95
72106;SHT30;59975;47.646;18.318;2023-03-05T14:30:22;5.85;61.94
72106;SHT30;59975;47.646;18.318;2023-03-05T14:32:50;5.87;62.29
72106;SHT30;59975;47.646;18.318;2023-03-05T14:35:19;5.68;62.49
72106;SHT30;59975;47.646;18.318;2023-03-05T14:37:47;5.57;63.46
72106;SHT30;59975;47.646;18.318;2023-03-05T14:42:58;5.75;63.54
72106;SHT30;59975;47.646;18.318;2023-03-05T14:47:52;5.71;63.84
72106;SHT30;59975;47.646;18.318;2023-03-05T14:50:24;5.67;64.07
72106;SHT30;59975;47.646;18.318;2023-03-05T14:52:52;5.58;64.52
72106;SHT30;59975;47.646;18.318;2023-03-05T14:55:21;5.57;64.64
72106;SHT30;59975;47.646;18.318;2023-03-05T14:57:48;5.60;65.15
72106;SHT30;59975;47.646;18.318;2023-03-05T15:00:24;5.72;65.05
72106;SHT30;59975;47.646;18.318;2023-03-05T15:02:50;5.78;64.60
72106;SHT30;59975;47.646;18.318;2023-03-05T15:05:16;5.71;64.75
72106;SHT30;59975;47.646;18.318;2023-03-05T15:07:42;5.61;64.81
72106;SHT30;59975;47.646;18.318;2023-03-05T15:10:13;5.48;64.68
72106;SHT30;59975;47.646;18.318;2023-03-05T15:12:39;5.31;64.97
72106;SHT30;59975;47.646;18.318;2023-03-05T15:15:05;5.31;65.29
72106;SHT30;59975;47.646;18.318;2023-03-05T15:17:33;5.37;65.17
72106;SHT30;59975;47.646;18.318;2023-03-05T15:19:59;5.26;64.94
72106;SHT30;59975;47.646;18.318;2023-03-05T15:22:25;5.23;65.08
72106;SHT30;59975;47.646;18.318;2023-03-05T15:24:50;5.13;65.37
72106;SHT30;59975;47.646;18.318;2023-03-05T15:27:16;5.12;65.01
72106;SHT30;59975;47.646;18.318;2023-03-05T15:29:42;5.08;65.14
72106;SHT30;59975;47.646;18.318;2023-03-05T15:32:08;5.05;65.49
72106;SHT30;59975;47.646;18.318;2023-03-05T15:34:34;5.05;65.74
72106;SHT30;59975;47.646;18.318;2023-03-05T15:37:01;4.95;65.96
72106;SHT30;59975;47.646;18.318;2023-03-05T15:39:26;4.93;66.13
72106;SHT30;59975;47.646;18.318;2023-03-05T15:41:52;4.96;66.21
72106;SHT30;59975;47.646;18.318;2023-03-05T15:44:19;4.93;65.99
72106;SHT30;59975;47.646;18.318;2023-03-05T15:46:45;4.86;66.25
72106;SHT30;59975;47.646;18.318;2023-03-05T15:49:10;4.83;66.00
72106;SHT30;59975;47.646;18.318;2023-03-05T15:51:36;4.76;66.32
72106;SHT30;59975;47.646;18.318;2023-03-05T15:54:01;4.76;66.78
72106;SHT30;59975;47.646;18.318;2023-03-05T15:56:27;4.65;66.26
72106;SHT30;59975;47.646;18.318;2023-03-05T15:58:52;4.56;66.70
72106;SHT30;59975;47.646;18.318;2023-03-05T16:01:18;4.58;66.79
72106;SHT30;59975;47.646;18.318;2023-03-05T16:03:45;4.46;66.94
72106;SHT30;59975;47.646;18.318;2023-03-05T16:06:12;4.40;67.11
72106;SHT30;59975;47.646;18.318;2023-03-05T16:08:41;4.34;66.97
72106;SHT30;59975;47.646;18.318;2023-03-05T16:11:09;4.33;66.89
72106;SHT30;59975;47.646;18.318;2023-03-05T16:13:35;4.35;66.89
72106;SHT30;59975;47.646;18.318;2023-03-05T16:16:02;4.31;67.15
72106;SHT30;59975;47.646;18.318;2023-03-05T16:18:30;4.25;66.89
72106;SHT30;59975;47.646;18.318;2023-03-05T16:20:57;4.17;67.30
72106;SHT30;59975;47.646;18.318;2023-03-05T16:23:22;4.17;67.66
72106;SHT30;59975;47.646;18.318;2023-03-05T16:25:48;4.11;68.03
72106;SHT30;59975;47.646;18.318;2023-03-05T16:28:13;4.13;68.14
72106;SHT30;59975;47.646;18.318;2023-03-05T16:30:39;4.14;67.89
72106;SHT30;59975;47.646;18.318;2023-03-05T16:33:05;4.04;68.52
72106;SHT30;59975;47.646;18.318;2023-03-05T16:35:31;4.08;68.29
72106;SHT30;59975;47.646;18.318;2023-03-05T16:37:57;4.01;68.80
72106;SHT30;59975;47.646;18.318;2023-03-05T16:40:23;4.00;68.64
72106;SHT30;59975;47.646;18.318;2023-03-05T16:42:49;4.01;68.36
72106;SHT30;59975;47.646;18.318;2023-03-05T16:45:15;3.95;68.58
72106;SHT30;59975;47.646;18.318;2023-03-05T16:47:40;3.87;68.82
72106;SHT30;59975;47.646;18.318;2023-03-05T16:50:08;3.79;69.19
72106;SHT30;59975;47.646;18.318;2023-03-05T16:52:35;3.80;69.07
72106;SHT30;59975;47.646;18.318;2023-03-05T16:55:00;3.76;69.10
72106;SHT30;59975;47.646;18.318;2023-03-05T16:57:26;3.72;69.15
72106;SHT30;59975;47.646;18.318;2023-03-05T16:59:54;3.59;69.72
72106;SHT30;59975;47.646;18.318;2023-03-05T17:02:19;3.46;70.76
72106;SHT30;59975;47.646;18.318;2023-03-05T17:04:45;3.35;71.14
72106;SHT30;59975;47.646;18.318;2023-03-05T17:07:11;3.30;71.12
72106;SHT30;59975;47.646;18.318;2023-03-05T17:09:36;3.33;71.25
72106;SHT30;59975;47.646;18.318;2023-03-05T17:12:02;3.39;70.85
72106;SHT30;59975;47.646;18.318;2023-03-05T17:14:28;3.44;70.26
72106;SHT30;59975;47.646;18.318;2023-03-05T17:16:53;3.49;70.16
72106;SHT30;59975;47.646;18.318;2023-03-05T17:19:19;3.55;69.93
72106;SHT30;59975;47.646;18.318;2023-03-05T17:21:44;3.48;69.67